Latest Weather Observations for Mandora

IDW60801

Issued at 11:02 pm WST Monday 3 August 2015 (issued every 30 minutes, with the page automatically refreshed every 10 minutes)

About weather observations | Map of weather stations | Latest weather observations for WA | Other Formats
Station Details ID: 004019 Name: MANDORA Lat: -19.74 Lon: 120.84 Height: 7.5 m
Data from the previous 72 hours. | See also: Recent months at Mandora
Date/Time
WST
Temp
°C
App
Temp
°C
Dew
Point
Rel
Hum
%
Delta-T
°C
Wind Press
QNH
hPa
Press
MSL
hPa
Rain
since 9 am
mm
Dir
 
Spd
km/h
Gust
km/h
Spd
kts
Gust
kts
03/11:00pm 23.1 18.1 3.6 28 9.4 SSE 19 28 10 15 1019.8 - 0.0
03/10:30pm 23.4 18.5 3.9 28 9.5 SSE 19 30 10 16 1019.7 - 0.0
03/10:00pm 23.7 19.2 4.1 28 9.6 SSE 17 32 9 17 1019.6 - 0.0
03/09:30pm 24.2 19.3 4.0 27 10.0 SSE 19 28 10 15 1019.4 - 0.0
03/09:00pm 24.4 19.9 4.2 27 10.0 SSE 17 26 9 14 1019.3 1019.3 0.0
03/08:30pm 24.0 19.8 3.9 27 9.9 SSE 15 24 8 13 1019.1 - 0.0
03/08:00pm 24.0 19.9 4.4 28 9.7 SSE 15 20 8 11 1018.9 - 0.0
03/07:30pm 24.8 21.0 4.0 26 10.3 SSE 13 19 7 10 1018.6 - 0.0
03/07:00pm 26.1 22.4 4.6 25 10.8 SSE 13 19 7 10 1018.3 - 0.0
03/06:30pm 26.9 22.8 4.6 24 11.3 SE 15 22 8 12 1018.0 - 0.0
03/06:00pm 27.5 23.8 4.5 23 11.7 SE 13 20 7 11 1017.7 1017.7 0.0
03/05:30pm 28.7 24.6 4.2 21 12.5 SE 15 24 8 13 1017.3 - 0.0
03/05:00pm 30.0 25.2 4.6 20 13.1 ESE 19 32 10 17 1016.9 - 0.0
03/04:30pm 30.7 25.7 4.4 19 13.6 SE 20 35 11 19 1016.8 - 0.0
03/04:00pm 31.4 26.1 5.0 19 13.8 SE 22 37 12 20 1016.7 - 0.0
03/03:30pm 31.3 25.6 4.9 19 13.8 SE 24 35 13 19 1016.6 - 0.0
03/03:00pm 31.6 26.0 5.2 19 13.9 SE 24 43 13 23 1016.8 1016.8 0.0
03/02:30pm 31.4 25.0 5.0 19 13.8 SE 28 54 15 29 1016.8 - 0.0
03/02:00pm 31.1 24.8 5.5 20 13.5 SE 28 46 15 25 1017.1 - 0.0
03/01:53pm 30.9 24.4 4.6 19 13.7 SE 28 46 15 25 1017.1 - 0.0
03/01:30pm 31.4 25.5 5.8 20 13.6 ESE 26 41 14 22 1017.4 - 0.0
03/01:00pm 30.6 24.3 5.8 21 13.1 SE 28 46 15 25 1018.0 - 0.0
03/12:30pm 30.3 24.1 6.2 22 12.8 ESE 28 46 15 25 1018.6 - 0.0
03/12:00pm 29.8 23.5 5.8 22 12.6 ESE 28 52 15 28 1019.1 1019.1 0.0
03/11:30am 29.2 22.7 6.6 24 12.0 ESE 30 48 16 26 1019.5 - 0.0
03/11:00am 28.4 22.0 7.1 26 11.4 SE 30 48 16 26 1020.0 - 0.0
03/10:30am 27.5 21.2 7.4 28 10.7 SE 30 52 16 28 1020.3 - 0.0
03/10:01am 26.2 19.2 6.8 29 10.2 ESE 33 52 18 28 1020.6 - 0.0
03/10:00am 26.3 18.9 6.9 29 10.2 ESE 35 52 19 28 1020.6 - 0.0
03/09:30am 25.5 18.2 7.1 31 9.7 ESE 35 54 19 29 1020.7 - 0.0
03/09:15am 24.9 18.5 7.1 32 9.3 SE 30 48 16 26 1020.7 - 0.0
03/09:00am 24.5 18.2 7.6 34 8.9 ESE 30 44 16 24 1020.6 1020.6 0.0
03/08:30am 23.2 16.5 7.3 36 8.3 SE 32 50 17 27 1020.3 - 0.0
03/08:24am 22.9 16.2 7.4 37 8.1 SE 32 50 17 27 1020.3 - 0.0
03/08:00am 22.0 16.6 7.8 40 7.4 SE 26 41 14 22 1020.1 - 0.0
03/07:30am 21.0 15.2 8.0 43 6.8 SE 28 41 15 22 1019.7 - 0.0
03/07:00am 20.3 15.7 8.0 45 6.4 SE 22 37 12 20 1019.4 - 0.0
03/06:30am 20.0 15.4 8.0 46 6.2 SE 22 33 12 18 1018.7 - 0.0
03/06:00am 20.4 15.5 8.4 46 6.2 SE 24 37 13 20 1018.4 1018.4 0.0
03/05:30am 20.7 15.8 8.4 45 6.4 SE 24 39 13 21 1018.1 - 0.0
03/05:00am 21.1 16.6 8.7 45 6.5 SE 22 35 12 19 1017.9 - 0.0
03/04:30am 21.4 16.9 8.7 44 6.7 SE 22 35 12 19 1017.8 - 0.0
03/04:00am 21.8 17.3 8.7 43 6.9 SE 22 37 12 20 1017.7 - 0.0
03/03:30am 22.1 17.5 8.2 41 7.3 SE 22 35 12 19 1017.7 - 0.0
03/03:00am 22.3 18.1 8.1 40 7.4 SE 20 32 11 17 1017.6 1017.6 0.0
03/02:30am 22.6 18.2 7.6 38 7.8 SE 20 35 11 19 1017.4 - 0.0
03/02:00am 23.1 18.8 7.2 36 8.2 SE 19 33 10 18 1017.4 - 0.0
03/01:30am 23.4 19.1 7.1 35 8.5 SE 19 32 10 17 1017.4 - 0.0
03/01:00am 23.3 19.4 7.0 35 8.4 SE 17 26 9 14 1017.6 - 0.0
03/12:30am 21.4 18.2 6.9 39 7.4 SSE 13 19 7 10 1017.8 - 0.0
03/12:00am 21.4 18.5 6.5 38 7.5 SSE 11 15 6 8 1017.8 1017.8 0.0
 
Date/Time
WST
Temp
°C
App
Temp
°C
Dew
Point
Rel
Hum
%
Delta-T
°C
Wind Press
QNH
hPa
Press
MSL
hPa
Rain
since 9 am
mm
Dir
 
Spd
km/h
Gust
km/h
Spd
kts
Gust
kts
02/11:30pm 23.7 20.5 6.9 34 8.7 SSE 13 19 7 10 1017.9 - 0.0
02/11:00pm 22.5 20.4 6.7 36 8.1 SSE 7 11 4 6 1018.2 - 0.0
02/10:30pm 22.2 19.3 6.4 36 8.0 SSE 11 15 6 8 1018.6 - 0.0
02/10:00pm 22.5 18.8 6.3 35 8.2 S 15 20 8 11 1018.4 - 0.0
02/09:30pm 20.9 18.1 6.8 40 7.2 S 11 15 6 8 1018.3 - 0.0
02/09:00pm 20.9 18.2 7.2 41 7.0 SSW 11 13 6 7 1018.1 1018.1 0.0
02/08:30pm 21.1 18.2 6.6 39 7.3 SSW 11 13 6 7 1017.9 - 0.0
02/08:00pm 21.6 18.7 6.3 37 7.7 SSW 11 11 6 6 1017.7 - 0.0
02/07:30pm 21.8 19.2 7.6 40 7.4 SSW 11 13 6 7 1017.5 - 0.0
02/07:00pm 22.3 19.5 6.9 37 7.9 SW 11 13 6 7 1017.2 - 0.0
02/06:30pm 22.7 20.8 7.7 38 7.8 WSW 7 9 4 5 1016.9 - 0.0
02/06:00pm 24.9 22.7 8.0 34 9.0 W 9 11 5 6 1016.6 1016.6 0.0
02/05:30pm 27.3 25.3 8.7 31 10.1 WNW 9 11 5 6 1016.3 - 0.0
02/05:00pm 29.8 27.7 8.2 26 11.8 WNW 9 15 5 8 1016.0 - 0.0
02/04:30pm 30.6 27.2 5.8 21 13.1 NW 13 17 7 9 1015.9 - 0.0
02/04:00pm 31.8 28.6 6.8 21 13.5 NW 13 17 7 9 1015.9 - 0.0
02/03:30pm 31.8 28.4 6.1 20 13.8 NW 13 17 7 9 1015.8 - 0.0
02/03:00pm 32.2 28.7 7.1 21 13.7 N 15 20 8 11 1015.8 1015.8 0.0
02/02:30pm 32.2 28.8 7.8 22 13.5 NNW 15 20 8 11 1015.9 - 0.0
02/02:00pm 31.8 29.5 10.5 27 12.2 NW 13 20 7 11 1016.2 - 0.0
02/01:30pm 32.8 30.3 4.6 17 14.8 ENE 7 13 4 7 1016.3 - 0.0
02/01:00pm 33.1 30.4 5.6 18 14.7 ESE 9 24 5 13 1016.4 - 0.0
02/12:30pm 32.9 30.1 7.0 20 14.1 E 11 19 6 10 1016.9 - 0.0
02/12:00pm 31.7 28.7 9.3 25 12.6 ENE 15 24 8 13 1017.4 1017.4 0.0
02/11:30am 32.0 30.2 10.7 27 12.3 ESE 11 22 6 12 1017.8 - 0.0
02/11:00am 30.1 28.7 12.1 33 10.5 E 11 17 6 9 1018.2 - 0.0
02/10:30am 27.9 27.4 13.8 42 8.4 E 9 19 5 10 1018.5 - 0.0
02/10:00am 25.5 25.4 14.9 52 6.4 ESE 9 17 5 9 1018.8 - 0.0
02/09:30am 21.1 21.7 18.7 86 1.5 ESE 13 22 7 12 1018.9 - 0.0
02/09:00am 19.2 21.0 18.7 97 0.3 ESE 7 13 4 7 1019.0 1019.0 0.2
02/08:30am 18.4 20.0 17.9 97 0.3 E 6 9 3 5 1018.6 - 0.2
02/08:00am 18.0 19.3 17.5 97 0.3 ESE 7 11 4 6 1018.5 - 0.2
02/07:30am 17.8 19.0 17.3 97 0.3 SE 7 9 4 5 1018.0 - 0.2
02/07:00am 17.7 19.0 17.2 97 0.3 ESE 6 9 3 5 1017.5 - 0.0
02/06:30am 17.4 17.7 16.9 97 0.3 SSE 11 15 6 8 1017.2 - 0.0
02/06:00am 17.1 18.0 16.6 97 0.3 SE 7 11 4 6 1016.8 1016.8 0.0
02/05:30am 17.1 17.6 16.6 97 0.3 SSE 9 15 5 8 1016.4 - 0.0
02/05:00am 17.7 18.8 17.2 97 0.3 SSE 7 13 4 7 1016.2 - 0.0
02/04:30am 17.2 18.1 16.7 97 0.3 S 7 9 4 5 1015.9 - 0.0
02/04:00am 17.6 18.3 17.1 97 0.3 SSW 9 11 5 6 1015.9 - 0.0
02/03:30am 17.3 18.2 16.7 96 0.4 SSW 7 9 4 5 1016.0 - 0.0
02/03:00am 16.9 17.7 16.3 96 0.4 SW 7 9 4 5 1016.2 1016.2 0.0
02/02:30am 16.5 16.8 15.9 96 0.4 W 9 11 5 6 1016.2 - 0.0
02/02:00am 16.3 16.9 15.7 96 0.4 WSW 7 9 4 5 1016.5 - 0.0
02/01:30am 16.3 16.9 15.7 96 0.4 SW 7 9 4 5 1016.7 - 0.0
02/01:00am 15.1 15.2 14.5 96 0.3 S 7 9 4 5 1016.8 - 0.0
02/12:30am 14.7 16.0 14.1 96 0.3 CALM 0 7 0 4 1017.0 - 0.0
02/12:00am 14.6 15.9 14.0 96 0.3 CALM 0 0 0 0 1017.1 1017.1 0.0
 
Date/Time
WST
Temp
°C
App
Temp
°C
Dew
Point
Rel
Hum
%
Delta-T
°C
Wind Press
QNH
hPa
Press
MSL
hPa
Rain
since 9 am
mm
Dir
 
Spd
km/h
Gust
km/h
Spd
kts
Gust
kts
01/11:30pm 14.5 15.7 13.7 95 0.4 CALM 0 0 0 0 1017.2 - 0.0
01/11:00pm 14.8 16.1 14.0 95 0.4 CALM 0 0 0 0 1017.3 - 0.0
01/10:30pm 15.4 16.9 14.6 95 0.5 CALM 0 0 0 0 1017.5 - 0.0
01/10:00pm 15.5 17.0 14.7 95 0.5 CALM 0 6 0 3 1017.6 - 0.0
01/09:30pm 16.1 16.7 15.3 95 0.5 WSW 6 7 3 4 1017.5 - 0.0
01/09:00pm 16.7 17.3 15.9 95 0.5 SW 7 7 4 4 1017.3 1017.3 0.0
01/08:30pm 16.6 17.1 15.6 94 0.6 SW 7 9 4 5 1017.2 - 0.0
01/08:00pm 16.6 17.1 15.5 93 0.6 SW 7 7 4 4 1017.1 - 0.0
01/07:30pm 16.4 18.0 14.8 90 0.9 CALM 0 0 0 0 1016.7 - 0.0
01/07:00pm 18.2 19.3 16.5 90 1.0 NW 6 6 3 3 1016.4 - 0.0
01/06:30pm 19.1 20.4 17.1 88 1.2 N 6 7 3 4 1015.9 - 0.0
01/06:00pm 20.2 21.5 17.6 85 1.6 NW 7 7 4 4 1015.6 1015.6 0.0
01/05:30pm 21.8 22.8 18.6 82 2.0 NW 11 17 6 9 1015.5 - 0.0
01/05:00pm 23.0 23.3 18.7 77 2.7 NW 15 20 8 11 1015.2 - 0.0
01/04:30pm 23.7 23.6 18.8 74 3.1 NW 17 24 9 13 1015.2 - 0.0
01/04:00pm 24.3 24.0 19.1 73 3.3 WNW 19 26 10 14 1015.0 - 0.0
01/03:30pm 24.7 24.1 18.9 70 3.7 WNW 20 26 11 14 1014.8 - 0.0
01/03:00pm 25.1 24.4 18.3 66 4.3 NW 19 28 10 15 1014.8 1014.8 0.0
01/02:30pm 25.2 24.0 17.4 62 4.9 NW 20 28 11 15 1014.9 - 0.0
01/02:00pm 25.6 24.5 17.3 60 5.2 NW 19 26 10 14 1015.1 - 0.0
01/01:30pm 25.5 24.2 16.9 59 5.3 NW 19 30 10 16 1015.4 - 0.0
01/01:00pm 25.6 25.1 17.8 62 4.9 NW 17 24 9 13 1015.6 - 0.0
01/12:30pm 25.7 25.0 17.4 60 5.2 NW 17 26 9 14 1016.1 - 0.0
01/12:00pm 25.9 25.1 17.0 58 5.5 NW 17 24 9 13 1016.5 1016.5 0.0
01/11:30am 25.9 25.6 16.5 56 5.8 NW 13 20 7 11 1016.8 - 0.0
01/11:00am 25.4 24.7 15.4 54 6.0 NNW 13 19 7 10 1017.0 - 0.0
01/10:30am 25.6 24.6 13.5 47 7.1 NNW 11 17 6 9 1017.3 - 0.0
01/10:00am 25.2 24.3 13.7 49 6.8 N 11 19 6 10 1017.5 - 0.0
01/09:30am 25.6 24.7 11.4 41 8.0 N 7 11 4 6 1017.5 - 0.0
01/09:00am 23.3 22.7 12.3 50 6.2 NNE 7 11 4 6 1017.2 1017.2 0.0
01/08:30am 21.0 20.5 12.7 59 4.7 NNE 7 9 4 5 1017.0 - 0.0
01/08:00am 19.0 19.9 13.0 68 3.4 CALM 0 6 0 3 1016.7 - 0.0
01/07:30am 16.3 17.0 12.3 77 2.2 CALM 0 6 0 3 1016.3 - 0.0
01/07:00am 15.0 14.5 12.1 83 1.6 SW 6 7 3 4 1015.9 - 0.0
01/06:30am 13.9 12.6 11.2 84 1.4 SW 9 9 5 5 1015.4 - 0.0
01/06:00am 14.4 13.1 11.2 81 1.7 WSW 9 13 5 7 1015.1 1015.1 0.0
01/05:30am 15.4 14.1 11.4 77 2.1 SW 9 13 5 7 1014.9 - 0.0
01/05:00am 16.2 14.1 11.2 72 2.7 SW 13 17 7 9 1014.8 - 0.0
01/04:30am 16.9 14.4 11.0 68 3.2 SW 15 20 8 11 1014.6 - 0.0
01/04:00am 17.5 14.7 11.5 68 3.3 SW 17 22 9 12 1014.5 - 0.0
01/03:30am 17.0 14.4 10.6 66 3.4 WSW 15 20 8 11 1014.6 - 0.0
01/03:00am 16.8 14.5 11.7 72 2.8 WSW 15 20 8 11 1014.7 1014.7 0.0
01/02:30am 16.4 14.0 12.8 79 2.0 WSW 17 20 9 11 1014.8 - 0.0
01/02:00am 16.5 14.7 13.2 81 1.8 WSW 15 19 8 10 1014.9 - 0.0
01/01:30am 16.4 14.8 12.9 80 1.9 WSW 13 17 7 9 1015.1 - 0.0
01/01:00am 16.7 15.1 12.8 78 2.2 WSW 13 15 7 8 1015.5 - 0.0
01/12:30am 16.8 15.4 13.5 81 1.9 WSW 13 15 7 8 1015.6 - 0.0
01/12:00am 17.0 16.0 14.5 85 1.4 WSW 13 17 7 9 1015.5 1015.5 0.0
 
Date/Time
WST
Temp
°C
App
Temp
°C
Dew
Point
Rel
Hum
%
Delta-T
°C
Wind Press
QNH
hPa
Press
MSL
hPa
Rain
since 9 am
mm
Dir
 
Spd
km/h
Gust
km/h
Spd
kts
Gust
kts
31/11:30pm 17.5 16.8 15.5 88 1.2 WSW 13 17 7 9 1015.7 - 0.0

Other Formats:

Comma delimited format used in spreadsheet applications
http://www.bom.gov.au/fwo/IDW60801/IDW60801.94200.axf

JavaScript Object Notation format (JSON) in row-major order
http://www.bom.gov.au/fwo/IDW60801/IDW60801.94200.json